createdAt,value
2019-01-27T00:04:31.828Z,2.07
2019-01-27T00:09:36.419Z,1.93
2019-01-27T00:14:40.353Z,1.63
2019-01-27T00:19:44.531Z,1.80
2019-01-27T00:24:48.803Z,8.53
2019-01-27T00:29:52.933Z,2.37
2019-01-27T00:34:57.011Z,1.53
2019-01-27T00:40:01.332Z,5.80
2019-01-27T00:45:06.188Z,1.50
2019-01-27T00:50:12.799Z,1.23
2019-01-27T00:55:18.876Z,1.00
2019-01-27T01:00:24.282Z,1.03
2019-01-27T01:05:28.197Z,2.70
2019-01-27T01:10:32.122Z,2.17
2019-01-27T01:15:36.353Z,1.00
2019-01-27T01:20:40.246Z,1.00
2019-01-27T01:25:44.311Z,0.97
2019-01-27T01:30:48.212Z,0.93
2019-01-27T01:35:52.178Z,1.03
2019-01-27T01:40:56.067Z,0.97
2019-01-27T01:45:59.891Z,0.90
2019-01-27T01:51:04.094Z,1.23
2019-01-27T01:56:08.319Z,0.70
2019-01-27T02:01:12.326Z,1.40
2019-01-27T02:06:16.142Z,1.20
2019-01-27T02:11:19.963Z,0.87
2019-01-27T02:16:23.798Z,0.87
2019-01-27T02:21:27.679Z,0.80
2019-01-27T02:26:31.775Z,0.73
2019-01-27T02:31:36.003Z,1.00
2019-01-27T02:36:40.149Z,1.10
2019-01-27T02:41:44.507Z,0.97
2019-01-27T02:46:48.667Z,1.87
2019-01-27T02:51:53.008Z,0.90
2019-01-27T02:56:57.414Z,1.10
2019-01-27T03:02:01.245Z,0.73
2019-01-27T03:07:15.266Z,0.80
2019-01-27T03:12:19.720Z,0.77
2019-01-27T03:17:23.902Z,0.90
2019-01-27T03:22:28.047Z,0.70
2019-01-27T03:27:32.257Z,1.23
2019-01-27T03:32:36.388Z,1.30
2019-01-27T03:37:40.628Z,0.90
2019-01-27T03:42:44.603Z,0.70
2019-01-27T03:47:48.835Z,0.70
2019-01-27T03:52:52.996Z,0.80
2019-01-27T03:57:57.467Z,0.90
2019-01-27T04:03:01.778Z,1.00
2019-01-27T04:08:05.996Z,0.70
2019-01-27T04:13:10.256Z,1.50
2019-01-27T04:18:14.091Z,0.87
2019-01-27T04:23:18.287Z,2.50
2019-01-27T04:28:22.211Z,0.70
2019-01-27T04:33:26.452Z,0.70
2019-01-27T04:38:30.627Z,0.73
2019-01-27T04:43:34.794Z,0.60
2019-01-27T04:48:38.953Z,0.60
2019-01-27T04:53:42.909Z,2.60
2019-01-27T04:58:46.827Z,0.67
2019-01-27T05:03:59.695Z,0.60
2019-01-27T05:09:05.772Z,0.80
2019-01-27T05:14:09.694Z,0.70
2019-01-27T05:19:13.531Z,0.80
2019-01-27T05:24:17.363Z,1.20
2019-01-27T05:29:21.451Z,0.60
2019-01-27T05:34:25.302Z,0.70
2019-01-27T05:39:29.163Z,0.60
2019-01-27T05:44:33.362Z,0.60
2019-01-27T05:49:37.511Z,1.97
2019-01-27T05:54:41.367Z,1.10
2019-01-27T05:59:45.607Z,0.70
2019-01-27T06:04:49.873Z,0.90
2019-01-27T06:09:54.214Z,1.20
2019-01-27T06:14:58.396Z,0.60
2019-01-27T06:20:02.567Z,0.70
2019-01-27T06:25:08.637Z,0.73
2019-01-27T06:30:18.410Z,0.70
2019-01-27T06:35:22.730Z,1.00
2019-01-27T06:40:26.706Z,0.70
2019-01-27T06:45:30.907Z,0.70
2019-01-27T06:50:34.819Z,0.70
2019-01-27T06:55:39.151Z,0.70
2019-01-27T07:01:05.448Z,0.80
2019-01-27T07:06:20.466Z,0.70
2019-01-27T07:11:46.271Z,0.80
2019-01-27T07:17:18.879Z,0.60
2019-01-27T07:22:42.123Z,0.70
2019-01-27T07:27:53.442Z,0.60
2019-01-27T07:33:31.549Z,0.90
2019-01-27T07:38:50.921Z,1.27
2019-01-27T07:44:26.154Z,0.70
2019-01-27T07:49:45.710Z,0.60
2019-01-27T07:55:01.277Z,0.70
2019-01-27T08:00:20.055Z,1.17
2019-01-27T08:05:29.339Z,0.77
2019-01-27T08:10:52.414Z,0.70
2019-01-27T08:16:04.359Z,1.23
2019-01-27T08:21:36.591Z,1.73
2019-01-27T08:27:05.619Z,1.00
2019-01-27T08:32:19.269Z,1.07
2019-01-27T08:37:38.320Z,2.53
2019-01-27T08:42:51.869Z,0.70
2019-01-27T08:47:56.323Z,0.70
2019-01-27T08:53:00.219Z,0.70
2019-01-27T08:58:04.935Z,0.80
2019-01-27T09:03:46.413Z,0.90
2019-01-27T09:08:58.199Z,1.63
2019-01-27T09:14:24.284Z,0.70
2019-01-27T09:19:44.731Z,2.40
2019-01-27T09:25:07.187Z,1.07
2019-01-27T09:30:40.310Z,1.00
2019-01-27T09:36:02.466Z,0.90
2019-01-27T09:41:31.550Z,0.80
2019-01-27T09:46:53.387Z,1.30
2019-01-27T09:52:06.303Z,1.40
2019-01-27T09:57:28.757Z,1.50
2019-01-27T10:02:57.983Z,1.60
2019-01-27T10:08:20.993Z,0.73
2019-01-27T10:13:32.860Z,0.87
2019-01-27T10:19:07.791Z,0.70
2019-01-27T10:24:29.762Z,1.53
2019-01-27T10:30:11.118Z,3.00
2019-01-27T10:35:46.599Z,0.70
2019-01-27T10:40:59.907Z,6.63
2019-01-27T10:46:31.982Z,0.80
2019-01-27T10:51:57.799Z,0.80
2019-01-27T10:57:21.023Z,1.30
2019-01-27T11:02:37.136Z,3.13
2019-01-27T11:07:51.574Z,1.57
2019-01-27T11:13:13.568Z,0.93
2019-01-27T11:18:26.864Z,1.30
2019-01-27T11:23:44.417Z,1.40
2019-01-27T11:29:25.847Z,1.83
2019-01-27T11:34:46.748Z,1.93
2019-01-27T11:40:09.082Z,5.17
2019-01-27T11:45:44.019Z,2.50
2019-01-27T11:50:58.504Z,4.00
2019-01-27T11:56:06.451Z,1.80
2019-01-27T12:01:10.717Z,2.30
2019-01-27T12:06:14.714Z,2.50
2019-01-27T12:11:18.849Z,1.33
2019-01-27T12:16:22.815Z,0.83
2019-01-27T12:21:26.907Z,2.37
2019-01-27T12:26:31.212Z,0.80
2019-01-27T12:31:35.031Z,1.27
2019-01-27T12:36:39.176Z,0.90
2019-01-27T12:41:44.805Z,0.90
2019-01-27T12:46:48.999Z,0.70
2019-01-27T12:51:52.903Z,1.40
2019-01-27T12:56:56.731Z,0.70
2019-01-27T13:02:00.639Z,0.90
2019-01-27T13:07:04.547Z,1.23
2019-01-27T13:12:08.543Z,0.80
2019-01-27T13:17:12.615Z,6.90
2019-01-27T13:22:16.687Z,3.77
2019-01-27T13:27:20.868Z,1.77
2019-01-27T13:32:24.706Z,3.43
2019-01-27T13:37:29.310Z,6.27
2019-01-27T13:42:33.494Z,0.97
2019-01-27T13:47:37.869Z,1.57
2019-01-27T13:52:42.307Z,1.20
2019-01-27T13:57:46.591Z,1.10
2019-01-27T14:02:50.691Z,1.67
2019-01-27T14:07:54.924Z,1.00
2019-01-27T14:12:59.237Z,1.67
2019-01-27T14:18:03.591Z,0.80
2019-01-27T14:23:07.514Z,1.00
2019-01-27T14:28:11.636Z,0.97
2019-01-27T14:33:15.928Z,0.83
2019-01-27T14:38:19.959Z,1.80
2019-01-27T14:43:24.219Z,0.90
2019-01-27T14:48:28.357Z,1.73
2019-01-27T14:53:32.399Z,2.00
2019-01-27T14:58:36.511Z,1.57
2019-01-27T15:03:40.836Z,1.57
2019-01-27T15:08:45.982Z,1.40
2019-01-27T15:13:50.344Z,1.70
2019-01-27T15:18:54.413Z,1.33
2019-01-27T15:23:59.762Z,1.03
2019-01-27T15:29:04.096Z,1.30
2019-01-27T15:34:08.047Z,1.73
2019-01-27T15:39:12.299Z,3.83
2019-01-27T15:44:16.427Z,2.60
2019-01-27T15:49:20.357Z,3.40
2019-01-27T15:54:24.191Z,2.10
2019-01-27T15:59:28.938Z,2.50
2019-01-27T16:04:33.115Z,2.40
2019-01-27T16:09:37.379Z,2.53
2019-01-27T16:14:41.542Z,2.00
2019-01-27T16:19:45.554Z,1.70
2019-01-27T16:24:49.763Z,1.63
2019-01-27T16:30:03.256Z,3.00
2019-01-27T16:35:14.362Z,2.10
2019-01-27T16:40:18.241Z,1.67
2019-01-27T16:45:22.754Z,3.80
2019-01-27T16:50:26.905Z,2.00
2019-01-27T16:55:31.300Z,2.50
2019-01-27T17:00:35.399Z,2.20
2019-01-27T17:05:39.896Z,2.33
2019-01-27T17:10:44.376Z,3.33
2019-01-27T17:15:48.711Z,2.37
2019-01-27T17:20:52.874Z,2.27
2019-01-27T17:25:56.756Z,3.20
2019-01-27T17:31:00.794Z,2.90
2019-01-27T17:36:05.008Z,6.13
2019-01-27T17:41:08.975Z,9.13
2019-01-27T17:46:12.782Z,6.70
2019-01-27T17:51:16.690Z,4.03
2019-01-27T17:56:21.133Z,6.37
2019-01-27T18:01:38.595Z,3.90
2019-01-27T18:06:56.870Z,2.93
2019-01-27T18:12:10.614Z,11.30
2019-01-27T18:17:14.580Z,6.83
2019-01-27T18:22:18.815Z,16.83
2019-01-27T18:27:23.015Z,10.63
2019-01-27T18:32:27.150Z,6.90
2019-01-27T18:37:31.628Z,13.83
2019-01-27T18:42:37.242Z,8.33
2019-01-27T18:47:41.361Z,8.73
2019-01-27T18:52:45.517Z,9.83
2019-01-27T18:57:57.151Z,9.27
2019-01-27T19:03:09.895Z,10.10
2019-01-27T19:08:39.056Z,10.63
2019-01-27T19:13:53.636Z,12.37
2019-01-27T19:19:04.095Z,16.50
2019-01-27T19:24:17.597Z,17.93
2019-01-27T19:29:50.187Z,5.97
2019-01-27T19:35:16.728Z,15.60
2019-01-27T19:40:29.714Z,13.23
2019-01-27T19:45:50.588Z,19.07
2019-01-27T19:51:13.678Z,12.53
2019-01-27T19:56:36.976Z,11.37
2019-01-27T20:01:58.973Z,12.50
2019-01-27T20:07:21.115Z,4.97
2019-01-27T20:12:42.644Z,23.17
2019-01-27T20:18:09.316Z,7.93
2019-01-27T20:23:48.112Z,11.70
2019-01-27T20:29:29.968Z,8.43
2019-01-27T20:35:01.287Z,12.83
2019-01-27T20:40:26.209Z,19.50
2019-01-27T20:45:52.131Z,10.63
2019-01-27T20:51:02.330Z,7.27
2019-01-27T20:56:28.486Z,6.20
2019-01-27T21:01:52.876Z,14.70
2019-01-27T21:07:28.358Z,14.97
2019-01-27T21:12:48.987Z,11.20
2019-01-27T21:18:07.296Z,18.13
2019-01-27T21:23:11.816Z,13.90
2019-01-27T21:28:16.018Z,13.17
2019-01-27T21:33:20.254Z,16.30
2019-01-27T21:38:24.811Z,15.67
2019-01-27T21:43:29.350Z,17.97
2019-01-27T21:48:33.972Z,14.40
2019-01-27T21:53:38.138Z,18.43
2019-01-27T21:58:42.346Z,23.37
2019-01-27T22:03:46.334Z,17.60
2019-01-27T22:08:50.762Z,19.40
2019-01-27T22:13:54.951Z,15.37
2019-01-27T22:18:59.067Z,17.17
2019-01-27T22:24:03.315Z,20.10
2019-01-27T22:29:07.577Z,18.70
2019-01-27T22:34:11.530Z,14.77
2019-01-27T22:39:15.707Z,14.80
2019-01-27T22:44:19.943Z,15.90
2019-01-27T22:49:24.363Z,9.27
2019-01-27T22:54:28.787Z,10.10
2019-01-27T22:59:33.044Z,12.77
2019-01-27T23:04:37.691Z,10.80
2019-01-27T23:09:41.872Z,18.00
2019-01-27T23:14:46.118Z,15.93
2019-01-27T23:19:49.983Z,8.83
2019-01-27T23:24:54.079Z,9.50
2019-01-27T23:29:58.247Z,9.33
2019-01-27T23:35:02.663Z,8.13
2019-01-27T23:40:07.274Z,10.97
2019-01-27T23:45:11.390Z,13.40
2019-01-27T23:50:15.651Z,10.63
2019-01-27T23:55:20.111Z,13.13
